Time;durP1;ratioP1;P1;durP2;ratioP2;P2;SDS_P1;SDS_P2;PMS_P1;PMS_P2;Temp;Humidity;BMP_temperature;BMP_pressure;BME280_temperature;BME280_humidity;BME280_pressure;Samples;Min_cycle;Max_cycle;Signal;HPM_P1;HPM_P2
2022/07/05 00:00:56;;;;;;;8.30;4.10;;;16.40;72.70;;;;;;5000905;28;20046;-71
2022/07/05 00:03:22;;;;;;;8.95;4.40;;;16.30;72.80;;;;;;5009516;28;20440;-71
2022/07/05 00:05:48;;;;;;;7.43;3.92;;;16.40;72.80;;;;;;5009799;28;20589;-71
2022/07/05 00:08:13;;;;;;;7.97;4.07;;;16.30;72.80;;;;;;4996216;28;20434;-71
2022/07/05 00:10:39;;;;;;;7.97;4.05;;;16.20;73.10;;;;;;4997967;28;20074;-72
2022/07/05 00:13:06;;;;;;;8.57;3.95;;;16.20;73.10;;;;;;5004598;28;20030;-71
2022/07/05 00:15:32;;;;;;;7.32;4.13;;;16.20;73.10;;;;;;5008171;28;20486;-71
2022/07/05 00:17:58;;;;;;;7.28;3.75;;;16.10;73.10;;;;;;4999804;28;20150;-71
2022/07/05 00:20:24;;;;;;;10.70;4.28;;;16.10;73.20;;;;;;4997686;28;20418;-71
2022/07/05 00:22:50;;;;;;;10.07;3.90;;;16.10;73.30;;;;;;4996099;28;20482;-72
2022/07/05 00:25:16;;;;;;;5.40;3.40;;;16.10;73.20;;;;;;4993565;28;20049;-72
2022/07/05 00:27:42;;;;;;;7.97;4.50;;;16.10;73.30;;;;;;5009497;28;20037;-71
2022/07/05 00:30:09;;;;;;;8.88;4.55;;;16.10;73.30;;;;;;5005521;28;20045;-72
2022/07/05 00:32:35;;;;;;;7.70;3.70;;;16.00;73.40;;;;;;5000347;28;20081;-71
2022/07/05 00:35:01;;;;;;;8.48;4.40;;;16.00;73.70;;;;;;5004900;28;20275;-72
2022/07/05 00:37:26;;;;;;;8.23;4.30;;;16.00;73.80;;;;;;5001090;28;20081;-71
2022/07/05 00:39:52;;;;;;;9.30;4.65;;;16.00;73.80;;;;;;5009819;28;20463;-71
2022/07/05 00:42:18;;;;;;;8.07;4.20;;;15.90;73.90;;;;;;5006800;28;20073;-71
2022/07/05 00:44:44;;;;;;;10.75;3.97;;;15.90;74.00;;;;;;5001798;28;20131;-72
2022/07/05 00:47:12;;;;;;;9.18;4.38;;;15.80;74.20;;;;;;5002372;28;20097;-72
2022/07/05 00:49:38;;;;;;;9.25;4.70;;;15.70;74.50;;;;;;5013107;28;20030;-72
2022/07/05 00:52:05;;;;;;;9.52;4.93;;;15.60;74.30;;;;;;5002302;28;20088;-72
2022/07/05 00:54:34;;;;;;;9.77;4.20;;;15.60;74.40;;;;;;5000238;28;20061;-72
2022/07/05 00:57:00;;;;;;;7.43;4.80;;;15.60;74.50;;;;;;5004553;28;20035;-71
2022/07/05 00:59:27;;;;;;;10.15;5.45;;;15.60;74.40;;;;;;5010818;28;20044;-71
2022/07/05 01:01:52;;;;;;;11.50;5.22;;;15.60;74.60;;;;;;5005739;28;20122;-72
2022/07/05 01:04:18;;;;;;;10.45;5.13;;;15.60;74.50;;;;;;5001135;28;20121;-71
2022/07/05 01:06:46;;;;;;;8.40;4.53;;;15.60;74.60;;;;;;5004257;28;20554;-71
2022/07/05 01:09:15;;;;;;;7.35;4.53;;;15.60;74.60;;;;;;5012229;28;20030;-72
2022/07/05 01:11:45;;;;;;;8.95;4.88;;;15.50;74.40;;;;;;5006007;28;20030;-72
2022/07/05 01:14:20;;;;;;;9.98;5.57;;;15.50;74.60;;;;;;4991491;28;20089;-72
2022/07/05 01:16:46;;;;;;;;;;;15.40;74.80;;;;;;4996843;28;20594;-71
2022/07/05 01:19:13;;;;;;;8.55;5.10;;;15.30;75.10;;;;;;5000568;28;20012;-72
2022/07/05 01:21:44;;;;;;;10.25;5.00;;;15.30;75.10;;;;;;5001869;28;20426;-72
2022/07/05 01:24:11;;;;;;;8.95;4.85;;;15.40;75.30;;;;;;5010556;28;20462;-71
2022/07/05 01:26:38;;;;;;;7.65;4.90;;;15.30;75.30;;;;;;5004111;28;20463;-71
2022/07/05 01:29:04;;;;;;;8.73;4.90;;;15.30;75.60;;;;;;5009454;28;20429;-71
2022/07/05 01:31:30;;;;;;;7.85;4.97;;;15.30;75.60;;;;;;5011643;28;20121;-71
2022/07/05 01:33:55;;;;;;;13.23;5.78;;;15.20;75.50;;;;;;4998428;28;20463;-71
2022/07/05 01:36:22;;;;;;;7.93;5.03;;;15.20;75.70;;;;;;5009428;28;20076;-71
2022/07/05 01:38:48;;;;;;;9.23;5.40;;;15.20;75.70;;;;;;5005167;28;20031;-71
2022/07/05 01:41:14;;;;;;;11.10;5.95;;;15.10;75.70;;;;;;5005831;28;20045;-71
2022/07/05 01:43:40;;;;;;;10.80;6.03;;;15.10;75.70;;;;;;5004062;28;20026;-71
2022/07/05 01:46:08;;;;;;;9.73;6.28;;;15.00;75.90;;;;;;4995116;28;20061;-71
2022/07/05 01:48:36;;;;;;;9.95;6.18;;;14.90;76.40;;;;;;5003068;28;20041;-71
2022/07/05 01:51:13;;;;;;;9.52;6.40;;;14.90;76.40;;;;;;5003536;28;20043;-71
2022/07/05 01:53:41;;;;;;;11.82;6.47;;;14.80;76.60;;;;;;4996193;28;20034;-70
2022/07/05 01:56:06;;;;;;;10.70;6.20;;;14.80;76.80;;;;;;5009183;28;20034;-71
2022/07/05 01:58:33;;;;;;;10.25;5.72;;;14.70;77.10;;;;;;5011655;28;20088;-71
2022/07/05 02:00:59;;;;;;;11.90;6.40;;;14.70;77.30;;;;;;5004038;28;20113;-71
2022/07/05 02:03:25;;;;;;;9.30;5.53;;;14.70;77.30;;;;;;5006450;28;20200;-71
2022/07/05 02:05:52;;;;;;;10.38;6.13;;;14.80;77.30;;;;;;5004430;28;20410;-70
2022/07/05 02:08:18;;;;;;;10.80;6.07;;;14.70;77.40;;;;;;5009247;28;20100;-71
2022/07/05 02:10:44;;;;;;;10.40;6.05;;;14.80;77.00;;;;;;5008939;28;20446;-71
2022/07/05 02:13:10;;;;;;;10.40;6.57;;;14.80;77.10;;;;;;5001746;28;20128;-71
2022/07/05 02:15:41;;;;;;;11.82;6.07;;;14.80;77.10;;;;;;5001509;28;20050;-70
2022/07/05 02:18:08;;;;;;;14.60;6.78;;;14.80;77.10;;;;;;5004508;28;20061;-70
2022/07/05 02:20:34;;;;;;;10.35;6.40;;;14.90;77.10;;;;;;5002605;28;20029;-71
2022/07/05 02:23:00;;;;;;;13.55;6.57;;;15.00;77.00;;;;;;5002337;28;20088;-71
2022/07/05 02:25:26;;;;;;;13.10;7.03;;;15.00;76.90;;;;;;4999054;28;20157;-71
2022/07/05 02:27:53;;;;;;;12.77;6.78;;;15.00;76.90;;;;;;5006149;28;20521;-71
2022/07/05 02:30:19;;;;;;;12.05;6.80;;;15.00;77.40;;;;;;5006223;28;20125;-71
2022/07/05 02:32:45;;;;;;;11.63;7.25;;;14.80;77.60;;;;;;5002362;28;20394;-71
2022/07/05 02:35:12;;;;;;;13.30;7.25;;;14.90;77.70;;;;;;5004582;28;20030;-71
2022/07/05 02:37:39;;;;;;;11.85;7.03;;;14.90;77.70;;;;;;5006803;28;20037;-71
2022/07/05 02:40:10;;;;;;;13.95;7.03;;;14.90;77.80;;;;;;5010623;28;20115;-72
2022/07/05 02:42:36;;;;;;;11.63;7.38;;;14.90;77.80;;;;;;5000582;28;20027;-71
2022/07/05 02:45:02;;;;;;;13.13;7.32;;;14.90;78.00;;;;;;4998105;28;20492;-71
2022/07/05 02:47:31;;;;;;;14.35;6.70;;;15.00;77.90;;;;;;5006143;28;20041;-71
2022/07/05 02:50:05;;;;;;;13.30;7.38;;;15.00;77.90;;;;;;4998720;28;20735;-71
2022/07/05 02:52:31;;;;;;;10.73;6.50;;;15.00;78.00;;;;;;5001365;28;20038;-71
2022/07/05 02:54:56;;;;;;;15.65;6.93;;;15.10;78.00;;;;;;5005766;28;20293;-71
2022/07/05 02:57:22;;;;;;;10.80;6.30;;;15.10;77.80;;;;;;4996508;28;20460;-71
2022/07/05 02:59:48;;;;;;;13.80;7.35;;;15.10;77.70;;;;;;5001778;28;20026;-71
2022/07/05 03:02:13;;;;;;;11.40;6.05;;;15.00;78.00;;;;;;4999413;28;20486;-71
2022/07/05 03:04:39;;;;;;;10.15;5.55;;;15.00;78.20;;;;;;5001491;28;20042;-71
2022/07/05 03:07:05;;;;;;;9.93;5.75;;;15.00;78.20;;;;;;5003629;28;20046;-71
2022/07/05 03:09:30;;;;;;;11.40;6.18;;;15.10;78.40;;;;;;5009808;28;20437;-71
2022/07/05 03:11:56;;;;;;;12.82;6.05;;;15.10;78.40;;;;;;5002179;28;20045;-71
2022/07/05 03:14:22;;;;;;;12.75;5.93;;;15.00;78.40;;;;;;4994903;28;20038;-72
2022/07/05 03:16:47;;;;;;;12.35;5.75;;;14.90;78.70;;;;;;4997468;28;20045;-72
2022/07/05 03:19:13;;;;;;;13.13;6.00;;;15.00;78.90;;;;;;5002110;28;20030;-71
2022/07/05 03:21:38;;;;;;;11.95;6.40;;;14.90;79.10;;;;;;5008910;28;20038;-72
2022/07/05 03:24:04;;;;;;;11.45;6.75;;;14.80;79.30;;;;;;5006800;28;20038;-72
2022/07/05 03:26:30;;;;;;;12.20;6.40;;;14.70;79.60;;;;;;5005157;28;20040;-72
2022/07/05 03:28:56;;;;;;;13.55;7.32;;;14.70;79.70;;;;;;4999276;28;20477;-71
2022/07/05 03:31:21;;;;;;;12.23;6.10;;;14.70;80.10;;;;;;5008837;28;20073;-71
2022/07/05 03:33:47;;;;;;;15.02;6.88;;;14.70;80.10;;;;;;5010246;28;20072;-72
2022/07/05 03:36:13;;;;;;;14.65;6.95;;;14.70;80.10;;;;;;5007630;28;20042;-71
2022/07/05 03:38:38;;;;;;;11.88;6.88;;;14.80;79.70;;;;;;4997045;28;20125;-71
2022/07/05 03:41:04;;;;;;;9.85;5.97;;;14.80;79.80;;;;;;5002070;28;20069;-72
2022/07/05 03:43:30;;;;;;;9.65;6.03;;;14.80;79.70;;;;;;5009954;28;20062;-72
2022/07/05 03:45:56;;;;;;;11.60;6.25;;;14.80;79.90;;;;;;5005960;28;20030;-72
2022/07/05 03:48:21;;;;;;;13.57;6.32;;;14.80;79.70;;;;;;5002186;28;20049;-71
2022/07/05 03:50:47;;;;;;;12.52;5.75;;;14.90;79.70;;;;;;5008335;28;20038;-71
2022/07/05 03:53:13;;;;;;;14.13;7.65;;;14.90;79.60;;;;;;4993196;28;20402;-72
2022/07/05 03:55:38;;;;;;;11.40;6.82;;;14.90;79.50;;;;;;5011741;28;20034;-72
2022/07/05 03:58:04;;;;;;;16.25;7.45;;;14.90;79.30;;;;;;5008681;28;20034;-72
2022/07/05 04:00:30;;;;;;;13.15;6.97;;;15.00;79.50;;;;;;5000995;28;20061;-71
2022/07/05 04:02:55;;;;;;;13.02;7.75;;;14.90;79.40;;;;;;4993150;28;20057;-72
2022/07/05 04:05:22;;;;;;;15.02;7.47;;;14.80;79.60;;;;;;5009414;28;20119;-72
2022/07/05 04:07:49;;;;;;;13.52;7.72;;;14.90;79.60;;;;;;5006126;28;20049;-71
2022/07/05 04:10:16;;;;;;;15.48;9.77;;;14.90;79.40;;;;;;4993385;28;20050;-71
2022/07/05 04:12:42;;;;;;;14.35;8.43;;;14.80;79.60;;;;;;5004556;28;20031;-71
2022/07/05 04:15:08;;;;;;;12.98;9.10;;;14.80;79.90;;;;;;4999114;28;20121;-71
2022/07/05 04:17:34;;;;;;;14.35;10.30;;;14.90;79.90;;;;;;4995512;28;20517;-71
2022/07/05 04:20:00;;;;;;;16.98;10.27;;;15.00;79.90;;;;;;5006657;28;20034;-72
2022/07/05 04:22:25;;;;;;;17.52;11.60;;;15.00;79.60;;;;;;5011645;28;20514;-71
2022/07/05 04:27:35;;;;;;;16.27;10.03;;;15.10;79.40;;;;;;5008345;28;20576;-71
2022/07/05 04:30:01;;;;;;;17.10;10.27;;;15.20;79.30;;;;;;5001756;28;20293;-72
2022/07/05 04:32:27;;;;;;;18.05;11.35;;;15.40;79.20;;;;;;5004398;28;20044;-72
2022/07/05 04:34:52;;;;;;;15.57;9.25;;;15.50;78.50;;;;;;5006726;28;20034;-75
2022/07/05 04:37:18;;;;;;;19.65;11.07;;;15.60;78.20;;;;;;5007501;28;20134;-75
2022/07/05 04:39:43;;;;;;;19.95;11.63;;;15.60;78.10;;;;;;5012727;28;20026;-75
2022/07/05 04:42:09;;;;;;;15.90;9.18;;;15.60;78.00;;;;;;5002687;28;20478;-75
2022/07/05 04:44:35;;;;;;;15.43;10.02;;;15.70;78.30;;;;;;5006310;28;20121;-74
2022/07/05 04:47:00;;;;;;;16.20;10.40;;;15.70;78.30;;;;;;4996590;28;20038;-76
2022/07/05 04:49:26;;;;;;;15.23;9.18;;;15.80;78.30;;;;;;5004366;28;20034;-74
2022/07/05 04:51:52;;;;;;;14.65;9.07;;;15.90;78.20;;;;;;5007753;28;20068;-74
2022/07/05 04:54:17;;;;;;;15.77;9.20;;;16.00;77.70;;;;;;5002304;28;20481;-74
2022/07/05 04:56:43;;;;;;;14.88;8.50;;;16.10;77.60;;;;;;5000776;28;20038;-73
2022/07/05 04:59:09;;;;;;;16.30;8.93;;;16.10;77.30;;;;;;5008875;28;20038;-74
2022/07/05 05:01:35;;;;;;;15.07;8.80;;;16.20;76.80;;;;;;4999575;28;20398;-75
2022/07/05 05:04:01;;;;;;;16.02;7.97;;;16.30;77.10;;;;;;4994416;28;20038;-75
2022/07/05 05:06:27;;;;;;;13.77;8.85;;;16.40;76.70;;;;;;5010563;28;20042;-75
2022/07/05 05:08:52;;;;;;;15.13;7.63;;;16.40;77.50;;;;;;5012443;28;20044;-75
2022/07/05 05:11:18;;;;;;;16.10;8.32;;;16.40;76.80;;;;;;5002483;28;20026;-75
2022/07/05 05:13:45;;;;;;;15.88;7.75;;;16.60;75.80;;;;;;5012993;28;20037;-75
2022/07/05 05:16:11;;;;;;;19.58;8.73;;;17.10;75.40;;;;;;5003907;28;20046;-75
2022/07/05 05:18:36;;;;;;;15.13;7.60;;;18.10;72.50;;;;;;4993817;28;20038;-75
2022/07/05 05:21:02;;;;;;;16.02;7.53;;;18.80;69.10;;;;;;5011970;28;20385;-76
2022/07/05 05:23:28;;;;;;;12.80;6.70;;;19.10;68.10;;;;;;5009882;28;20092;-75
2022/07/05 05:25:54;;;;;;;15.93;7.45;;;19.70;66.10;;;;;;4993295;28;20042;-76
2022/07/05 05:28:19;;;;;;;17.77;7.25;;;19.70;64.90;;;;;;5004012;28;20045;-75
2022/07/05 05:30:45;;;;;;;17.63;7.40;;;19.90;64.40;;;;;;5007166;28;20481;-75
2022/07/05 05:33:11;;;;;;;24.35;7.38;;;20.40;63.10;;;;;;4994854;28;20501;-75
2022/07/05 05:35:36;;;;;;;16.05;7.20;;;20.60;62.80;;;;;;5004903;28;20034;-75
2022/07/05 05:38:02;;;;;;;16.95;8.25;;;20.90;61.80;;;;;;4996213;28;20482;-76
2022/07/05 05:40:28;;;;;;;27.92;8.55;;;20.50;61.70;;;;;;5001019;28;20038;-75
2022/07/05 05:42:55;;;;;;;20.58;7.63;;;20.10;64.10;;;;;;5013223;28;20022;-75
2022/07/05 05:45:21;;;;;;;14.60;7.45;;;20.60;62.40;;;;;;5007063;28;20050;-75
2022/07/05 05:47:49;;;;;;;13.52;6.00;;;21.10;60.90;;;;;;4994869;28;20113;-75
2022/07/05 05:50:26;;;;;;;14.85;7.43;;;21.40;59.90;;;;;;5007108;28;20137;-75
2022/07/05 05:52:52;;;;;;;15.98;7.57;;;21.10;60.40;;;;;;4996272;28;20383;-75
2022/07/05 05:55:19;;;;;;;16.90;8.02;;;20.20;63.70;;;;;;5011564;28;20129;-75
2022/07/05 05:57:45;;;;;;;22.25;8.48;;;19.60;65.70;;;;;;4995881;28;20045;-75
2022/07/05 06:00:12;;;;;;;20.13;8.60;;;19.20;67.10;;;;;;4999060;28;20034;-75
2022/07/05 06:02:38;;;;;;;18.20;9.05;;;18.80;68.50;;;;;;5001607;28;20045;-75
2022/07/05 06:05:04;;;;;;;17.00;8.15;;;18.60;69.90;;;;;;5003491;28;20034;-75
2022/07/05 06:07:30;;;;;;;18.35;10.30;;;18.40;70.80;;;;;;5003638;28;20045;-76
2022/07/05 06:09:55;;;;;;;15.35;9.63;;;18.50;70.50;;;;;;5007689;28;20032;-76
2022/07/05 06:12:21;;;;;;;18.13;9.77;;;18.40;71.30;;;;;;5010426;28;20485;-75
2022/07/05 06:14:47;;;;;;;18.10;10.52;;;18.50;70.90;;;;;;5006079;28;20049;-75
2022/07/05 06:17:12;;;;;;;17.98;10.88;;;18.40;72.00;;;;;;4997403;28;20038;-75
2022/07/05 06:19:38;;;;;;;22.85;11.57;;;18.30;72.30;;;;;;4991327;28;20427;-75
2022/07/05 06:22:04;;;;;;;21.30;10.65;;;18.30;72.40;;;;;;4991426;28;20077;-75
2022/07/05 06:24:30;;;;;;;19.83;10.63;;;18.20;73.80;;;;;;4999720;28;20484;-75
2022/07/05 06:26:55;;;;;;;17.48;10.07;;;18.30;73.50;;;;;;5000394;28;20038;-75
2022/07/05 06:29:21;;;;;;;18.33;10.45;;;18.60;73.40;;;;;;5010705;28;20132;-75
2022/07/05 06:31:47;;;;;;;21.27;12.20;;;18.60;72.70;;;;;;4999819;28;20497;-75
2022/07/05 06:34:12;;;;;;;20.67;10.48;;;18.90;71.90;;;;;;4992106;28;20528;-75
2022/07/05 06:36:38;;;;;;;16.33;8.95;;;19.30;70.50;;;;;;4996766;28;20034;-76
2022/07/05 06:39:03;;;;;;;22.42;10.45;;;19.50;69.60;;;;;;5010635;28;20390;-76
2022/07/05 06:41:29;;;;;;;18.48;9.65;;;19.70;69.40;;;;;;5004203;28;20031;-75
2022/07/05 06:43:55;;;;;;;27.13;12.30;;;19.70;69.30;;;;;;4992713;28;20022;-76
2022/07/05 06:46:20;;;;;;;23.25;12.27;;;19.60;69.50;;;;;;5001908;28;20129;-75
2022/07/05 06:48:46;;;;;;;22.30;10.90;;;19.60;69.60;;;;;;5002687;28;20509;-75
2022/07/05 06:51:11;;;;;;;18.38;11.20;;;19.60;70.30;;;;;;4993954;28;20038;-76
2022/07/05 06:53:37;;;;;;;26.58;12.60;;;19.50;70.30;;;;;;4992339;28;20534;-76
2022/07/05 06:56:03;;;;;;;20.00;11.68;;;19.70;70.70;;;;;;4998944;28;20491;-76
2022/07/05 06:58:29;;;;;;;20.58;11.65;;;19.90;69.10;;;;;;4999173;28;20049;-76
2022/07/05 07:00:55;;;;;;;21.05;11.27;;;20.00;69.30;;;;;;4997494;28;20129;-76
2022/07/05 07:03:20;;;;;;;26.70;12.02;;;19.90;70.80;;;;;;5002032;28;20120;-75
2022/07/05 07:05:46;;;;;;;24.38;12.30;;;20.10;70.10;;;;;;5002375;28;20482;-76
2022/07/05 07:10:56;;;;;;;24.67;11.52;;;20.10;70.00;;;;;;4999025;28;20048;-76
2022/07/05 07:13:22;;;;;;;18.38;10.85;;;20.30;68.70;;;;;;4997709;28;20035;-76
2022/07/05 07:15:48;;;;;;;23.15;12.02;;;20.40;69.30;;;;;;4995954;28;20473;-76
2022/07/05 07:18:15;;;;;;;18.73;10.60;;;20.70;69.70;;;;;;5007578;28;20091;-76
2022/07/05 07:20:41;;;;;;;24.88;11.15;;;21.10;67.50;;;;;;4999068;28;20440;-76
2022/07/05 07:23:07;;;;;;;24.85;10.65;;;21.30;66.40;;;;;;5005194;28;20096;-76
2022/07/05 07:25:32;;;;;;;19.33;10.43;;;21.40;66.40;;;;;;4990154;28;20038;-76
2022/07/05 07:27:58;;;;;;;19.88;10.65;;;21.10;67.20;;;;;;4996151;28;20409;-76
2022/07/05 07:30:28;;;;;;;20.85;10.63;;;20.90;67.80;;;;;;4999550;28;20470;-75
2022/07/05 07:32:54;;;;;;;18.27;10.57;;;20.90;69.30;;;;;;5003134;28;20089;-76
2022/07/05 07:35:21;;;;;;;19.65;10.38;;;21.20;67.00;;;;;;4989781;28;20136;-75
2022/07/05 07:37:47;;;;;;;18.67;10.13;;;21.60;66.10;;;;;;5001370;28;20038;-75
2022/07/05 07:40:13;;;;;;;21.15;10.35;;;21.60;65.50;;;;;;5009623;28;20034;-76
2022/07/05 07:42:39;;;;;;;21.52;9.98;;;21.70;65.50;;;;;;4999024;28;20027;-76
2022/07/05 07:45:05;;;;;;;19.10;10.38;;;21.90;66.10;;;;;;5005012;28;20042;-76
2022/07/05 07:47:32;;;;;;;21.75;10.20;;;21.80;64.30;;;;;;4991105;28;20130;-76
2022/07/05 07:49:57;;;;;;;18.75;10.57;;;22.00;64.40;;;;;;5004538;28;20030;-75
2022/07/05 07:52:23;;;;;;;17.90;11.75;;;22.10;64.90;;;;;;4998429;28;20046;-75
2022/07/05 07:54:49;;;;;;;16.20;10.98;;;22.00;64.20;;;;;;4997570;28;20116;-75
2022/07/05 07:57:14;;;;;;;12.70;10.02;;;22.20;64.60;;;;;;5007809;28;20062;-75
2022/07/05 07:59:40;;;;;;;16.88;10.90;;;22.40;63.30;;;;;;5005106;28;20050;-75
2022/07/05 08:02:06;;;;;;;15.60;9.50;;;22.60;62.90;;;;;;5002000;28;20038;-75
2022/07/05 08:04:32;;;;;;;16.38;10.88;;;22.60;62.50;;;;;;5013007;28;20029;-75
2022/07/05 08:06:58;;;;;;;16.23;9.55;;;22.90;62.80;;;;;;5005094;28;20046;-75
2022/07/05 08:09:24;;;;;;;16.60;9.85;;;23.10;62.00;;;;;;5008457;28;20104;-75
2022/07/05 08:11:49;;;;;;;17.48;9.38;;;23.10;60.20;;;;;;5011222;28;20032;-75
2022/07/05 08:14:17;;;;;;;15.20;9.73;;;23.20;60.00;;;;;;5011896;28;20129;-75
2022/07/05 08:16:43;;;;;;;17.80;10.15;;;23.10;58.50;;;;;;5003485;28;20053;-75
2022/07/05 08:21:53;;;;;;;;;;;22.80;60.10;;;;;;5010950;28;20032;-75
2022/07/05 08:24:18;;;;;;;10.45;6.05;;;23.00;61.20;;;;;;5012458;28;20011;-75
2022/07/05 08:26:44;;;;;;;10.55;5.88;;;22.70;58.10;;;;;;5003818;28;20449;-75
2022/07/05 08:29:12;;;;;;;12.57;7.30;;;23.00;58.60;;;;;;5004012;28;20054;-76
2022/07/05 08:31:44;;;;;;;10.85;6.78;;;23.10;57.90;;;;;;5006380;28;20129;-75
2022/07/05 08:34:10;;;;;;;14.45;8.00;;;23.30;58.50;;;;;;5002365;28;20046;-75
2022/07/05 08:36:37;;;;;;;13.77;8.00;;;23.60;56.30;;;;;;5002439;28;20050;-75
2022/07/05 08:39:03;;;;;;;12.43;7.20;;;23.60;58.40;;;;;;5010761;28;20091;-75
2022/07/05 08:41:31;;;;;;;11.95;7.70;;;23.30;57.70;;;;;;5010821;28;20399;-75
2022/07/05 08:43:57;;;;;;;13.02;7.03;;;23.00;56.80;;;;;;5000156;28;20054;-75
2022/07/05 08:46:25;;;;;;;16.67;8.95;;;23.50;57.10;;;;;;4994016;28;20026;-75
2022/07/05 08:48:51;;;;;;;15.05;7.90;;;23.80;57.60;;;;;;5011025;28;20038;-75
2022/07/05 08:51:22;;;;;;;12.52;8.13;;;24.30;56.10;;;;;;5004918;28;20079;-75
2022/07/05 08:53:49;;;;;;;13.30;8.25;;;24.40;54.20;;;;;;4997451;28;20037;-75
2022/07/05 08:56:15;;;;;;;11.48;7.25;;;23.90;56.00;;;;;;5010645;28;20026;-75
2022/07/05 08:58:41;;;;;;;13.23;7.10;;;23.60;56.30;;;;;;5000892;28;20486;-75
2022/07/05 09:01:08;;;;;;;13.35;8.45;;;23.60;56.50;;;;;;5005639;28;20030;-75
2022/07/05 09:03:38;;;;;;;13.43;8.55;;;23.30;57.70;;;;;;5008085;28;20034;-75
2022/07/05 09:06:07;;;;;;;14.02;8.80;;;23.20;58.90;;;;;;5011919;28;20149;-75
2022/07/05 09:08:39;;;;;;;14.65;9.43;;;23.20;59.40;;;;;;5011729;28;20042;-75
2022/07/05 09:11:10;;;;;;;14.40;8.73;;;23.00;60.10;;;;;;4999406;28;20042;-75
2022/07/05 09:13:37;;;;;;;12.63;9.07;;;22.80;60.40;;;;;;5006904;28;20050;-75
2022/07/05 09:16:04;;;;;;;12.13;8.35;;;23.20;60.60;;;;;;5008335;28;20116;-76
2022/07/05 09:18:47;;;;;;;14.75;9.50;;;23.80;57.60;;;;;;5000397;28;20093;-75
2022/07/05 09:21:13;;;;;;;15.15;9.50;;;23.60;57.40;;;;;;5008155;28;20113;-75
2022/07/05 09:23:39;;;;;;;13.32;8.70;;;23.60;57.00;;;;;;4991932;28;20038;-74
2022/07/05 09:26:05;;;;;;;13.20;8.70;;;23.60;57.00;;;;;;5001465;28;20375;-74
2022/07/05 09:28:31;;;;;;;13.55;7.72;;;23.40;56.90;;;;;;5004476;28;20044;-75
2022/07/05 09:30:57;;;;;;;12.43;7.78;;;23.20;58.40;;;;;;5011959;28;20045;-75
2022/07/05 09:33:22;;;;;;;10.52;6.28;;;23.20;56.50;;;;;;5008742;28;20048;-75
2022/07/05 09:35:59;;;;;;;9.70;6.07;;;23.10;56.80;;;;;;5011091;28;20033;-74
2022/07/05 09:38:26;;;;;;;9.77;5.93;;;23.30;56.50;;;;;;5003359;28;20057;-75
2022/07/05 09:40:57;;;;;;;12.38;7.15;;;23.40;56.50;;;;;;5005127;28;20378;-74
2022/07/05 09:43:28;;;;;;;14.77;8.10;;;23.50;57.30;;;;;;5000773;28;20041;-74
2022/07/05 09:45:55;;;;;;;11.50;7.05;;;23.60;55.90;;;;;;5010564;28;20030;-75
2022/07/05 09:48:21;;;;;;;10.05;5.93;;;23.80;54.50;;;;;;4993886;28;20109;-74
2022/07/05 09:50:49;;;;;;;8.77;5.28;;;23.70;55.20;;;;;;5003135;28;20378;-75
2022/07/05 09:53:14;;;;;;;8.70;4.97;;;23.60;55.80;;;;;;5009003;28;20038;-75
2022/07/05 09:55:43;;;;;;;9.23;5.70;;;23.40;55.20;;;;;;5008808;28;20046;-75
2022/07/05 09:58:12;;;;;;;10.57;5.43;;;23.10;55.90;;;;;;5010764;28;20124;-74
2022/07/05 10:00:37;;;;;;;8.45;5.43;;;23.30;56.30;;;;;;5010562;28;20034;-75
2022/07/05 10:03:03;;;;;;;9.23;5.85;;;23.60;55.30;;;;;;5003904;28;20049;-75
2022/07/05 10:05:32;;;;;;;10.38;5.07;;;23.60;55.00;;;;;;5000417;28;20034;-75
2022/07/05 10:08:00;;;;;;;9.70;4.70;;;23.60;54.10;;;;;;5014463;28;20049;-75
2022/07/05 10:10:30;;;;;;;9.82;4.70;;;24.10;52.90;;;;;;5005041;28;20394;-75
2022/07/05 10:12:58;;;;;;;9.20;4.60;;;24.30;52.00;;;;;;5009725;28;20331;-75
2022/07/05 10:15:26;;;;;;;7.45;4.57;;;24.80;52.50;;;;;;5007629;28;20042;-75
2022/07/05 10:17:54;;;;;;;9.98;4.38;;;25.00;48.30;;;;;;4993952;28;20041;-75
2022/07/05 10:20:36;;;;;;;7.85;3.90;;;25.20;50.70;;;;;;5005747;28;20049;-76
2022/07/05 10:23:04;;;;;;;8.50;3.55;;;25.50;47.40;;;;;;5001307;28;20570;-76
2022/07/05 10:25:30;;;;;;;10.07;2.22;;;25.60;47.80;;;;;;4991953;28;20049;-75
2022/07/05 10:27:58;;;;;;;5.10;2.00;;;25.20;47.20;;;;;;4999004;28;20045;-75
2022/07/05 10:30:24;;;;;;;4.60;2.05;;;24.80;47.50;;;;;;4994515;28;20046;-75
2022/07/05 10:32:51;;;;;;;3.85;2.00;;;24.80;49.10;;;;;;5009849;28;20087;-75
2022/07/05 10:35:18;;;;;;;5.68;2.55;;;24.40;47.90;;;;;;5007914;28;20066;-75
2022/07/05 10:37:46;;;;;;;5.93;2.70;;;24.30;48.00;;;;;;4999765;28;20041;-76
2022/07/05 10:40:12;;;;;;;7.50;2.63;;;24.00;46.50;;;;;;5010402;28;20034;-75
2022/07/05 10:42:42;;;;;;;5.07;2.65;;;24.00;48.10;;;;;;5008773;28;20077;-75
2022/07/05 10:45:35;;;;;;;7.15;2.28;;;24.10;48.60;;;;;;4995847;28;20026;-76
2022/07/05 10:48:10;;;;;;;13.50;3.20;;;24.50;49.20;;;;;;5009327;28;20041;-75
2022/07/05 10:50:55;;;;;;;4.97;1.80;;;24.70;46.20;;;;;;5007129;28;20042;-76
2022/07/05 10:53:53;;;;;;;4.47;1.73;;;24.70;47.90;;;;;;4998584;28;20066;-76
2022/07/05 10:56:18;;;;;;;4.13;1.63;;;24.60;46.40;;;;;;4984587;28;20034;-76
2022/07/05 10:58:45;;;;;;;7.88;1.83;;;24.30;47.20;;;;;;4998266;28;20045;-76
2022/07/05 11:01:19;;;;;;;6.30;1.67;;;24.00;47.70;;;;;;4995974;28;20035;-76
2022/07/05 11:04:06;;;;;;;4.55;1.63;;;23.90;48.80;;;;;;5009207;28;20057;-76
2022/07/05 11:06:38;;;;;;;5.78;2.00;;;23.60;49.70;;;;;;4999854;28;20100;-76
2022/07/05 11:09:05;;;;;;;6.63;2.10;;;24.10;48.90;;;;;;5003462;28;20046;-76
2022/07/05 11:11:34;;;;;;;4.43;1.85;;;24.20;48.10;;;;;;4997759;28;20039;-76
2022/07/05 11:14:02;;;;;;;8.77;1.98;;;24.10;46.80;;;;;;5003435;28;20046;-75
2022/07/05 11:16:37;;;;;;;6.57;1.92;;;23.80;47.60;;;;;;4999760;28;20424;-76
2022/07/05 11:19:21;;;;;;;6.13;1.90;;;23.80;48.10;;;;;;5000175;28;20058;-77
2022/07/05 11:22:04;;;;;;;6.40;1.77;;;23.80;48.80;;;;;;4998858;28;20044;-76
2022/07/05 11:24:37;;;;;;;6.95;2.30;;;23.90;47.70;;;;;;5006967;28;20481;-76
2022/07/05 11:27:11;;;;;;;6.25;1.88;;;24.10;47.20;;;;;;5000423;28;20084;-75
2022/07/05 11:29:46;;;;;;;6.18;2.20;;;23.80;48.00;;;;;;4998644;28;20041;-77
2022/07/05 11:32:14;;;;;;;4.72;2.10;;;23.60;48.70;;;;;;4999860;28;20513;-76
2022/07/05 11:34:44;;;;;;;6.35;2.17;;;23.60;47.20;;;;;;5002139;28;20045;-76
2022/07/05 11:37:24;;;;;;;4.80;1.92;;;23.20;48.90;;;;;;5006768;28;20034;-75
2022/07/05 11:40:11;;;;;;;4.70;1.88;;;23.50;48.90;;;;;;5004323;28;20037;-76
2022/07/05 11:42:39;;;;;;;5.75;1.75;;;23.90;48.10;;;;;;5001359;28;20080;-76
2022/07/05 11:45:09;;;;;;;7.10;2.00;;;24.10;46.10;;;;;;5009660;28;20060;-76
2022/07/05 11:47:35;;;;;;;4.55;1.80;;;24.50;46.20;;;;;;5005490;28;20749;-76
2022/07/05 11:50:01;;;;;;;3.88;1.83;;;24.50;46.00;;;;;;4999963;28;20050;-77
2022/07/05 11:52:32;;;;;;;5.82;1.98;;;24.40;45.60;;;;;;5006085;28;20038;-76
2022/07/05 11:55:00;;;;;;;6.75;2.05;;;24.20;45.20;;;;;;4997855;28;20121;-76
2022/07/05 11:57:25;;;;;;;4.57;2.22;;;23.80;45.00;;;;;;4998090;28;20042;-76
2022/07/05 11:59:51;;;;;;;5.75;2.00;;;23.10;46.40;;;;;;5008792;28;20501;-76
2022/07/05 12:02:18;;;;;;;6.63;1.90;;;23.70;46.10;;;;;;5004280;28;20040;-76
2022/07/05 12:04:54;;;;;;;5.85;1.90;;;24.20;47.60;;;;;;5008620;28;20041;-76
2022/07/05 12:07:29;;;;;;;4.18;2.13;;;24.00;44.90;;;;;;5005727;28;20054;-76
2022/07/05 12:12:42;;;;;;;3.85;1.80;;;24.20;45.50;;;;;;5008302;28;20393;-76
2022/07/05 12:15:11;;;;;;;7.00;1.75;;;24.50;45.70;;;;;;5000349;28;20054;-77
2022/07/05 12:17:39;;;;;;;8.05;1.85;;;24.10;45.00;;;;;;5005180;28;20053;-76
2022/07/05 12:20:07;;;;;;;4.50;1.80;;;24.20;46.00;;;;;;5009448;28;20116;-76
2022/07/05 12:22:39;;;;;;;7.53;2.03;;;24.10;45.30;;;;;;5009748;28;20046;-76
2022/07/05 12:25:07;;;;;;;6.68;2.10;;;24.00;45.90;;;;;;4996840;28;20046;-76
2022/07/05 12:27:35;;;;;;;6.15;1.95;;;23.60;46.60;;;;;;5008206;28;20051;-76
2022/07/05 12:30:03;;;;;;;3.78;1.80;;;23.20;47.20;;;;;;5007413;28;20141;-77
2022/07/05 12:32:30;;;;;;;5.78;1.90;;;23.50;46.80;;;;;;4996102;28;20449;-76
2022/07/05 12:34:56;;;;;;;4.03;1.88;;;23.30;46.50;;;;;;5008331;28;20470;-76
2022/07/05 12:37:27;;;;;;;4.45;2.08;;;23.10;47.60;;;;;;5005449;28;20043;-76
2022/07/05 12:40:07;;;;;;;6.05;2.20;;;22.90;48.00;;;;;;5005853;28;20076;-76
2022/07/05 12:42:39;;;;;;;6.85;2.00;;;22.90;47.60;;;;;;4995795;28;20041;-76
2022/07/05 12:45:18;;;;;;;5.00;1.77;;;22.80;48.10;;;;;;5003145;28;20030;-76
2022/07/05 12:47:50;;;;;;;5.53;2.00;;;23.40;47.60;;;;;;5012321;28;20041;-77
2022/07/05 12:50:16;;;;;;;4.55;1.85;;;23.40;46.20;;;;;;5007759;28;20115;-76